sensor_id;sensor_type;location;lat;lon;timestamp;P1;durP1;ratioP1;P2;durP2;ratioP2
37785;SDS011;23625;48.784;9.336;2023-01-25T00:00:40;55.65;;;21.75;;
37785;SDS011;23625;48.784;9.336;2023-01-25T00:03:06;50.60;;;20.25;;
37785;SDS011;23625;48.784;9.336;2023-01-25T00:05:32;59.70;;;22.98;;
37785;SDS011;23625;48.784;9.336;2023-01-25T00:07:58;54.00;;;22.67;;
37785;SDS011;23625;48.784;9.336;2023-01-25T00:10:24;59.33;;;20.75;;
37785;SDS011;23625;48.784;9.336;2023-01-25T00:12:50;50.33;;;19.50;;
37785;SDS011;23625;48.784;9.336;2023-01-25T00:15:16;54.88;;;22.80;;
37785;SDS011;23625;48.784;9.336;2023-01-25T00:17:41;57.25;;;21.90;;
37785;SDS011;23625;48.784;9.336;2023-01-25T00:20:08;56.83;;;22.98;;
37785;SDS011;23625;48.784;9.336;2023-01-25T00:22:34;50.28;;;21.13;;
37785;SDS011;23625;48.784;9.336;2023-01-25T00:25:00;54.30;;;20.75;;
37785;SDS011;23625;48.784;9.336;2023-01-25T00:27:26;54.60;;;21.55;;
37785;SDS011;23625;48.784;9.336;2023-01-25T00:35:59;51.75;;;19.88;;
37785;SDS011;23625;48.784;9.336;2023-01-25T00:38:33;49.58;;;20.05;;
37785;SDS011;23625;48.784;9.336;2023-01-25T00:40:59;50.17;;;18.20;;
37785;SDS011;23625;48.784;9.336;2023-01-25T00:43:25;50.13;;;21.23;;
37785;SDS011;23625;48.784;9.336;2023-01-25T00:45:51;46.63;;;20.92;;
37785;SDS011;23625;48.784;9.336;2023-01-25T00:48:17;53.42;;;20.23;;
37785;SDS011;23625;48.784;9.336;2023-01-25T00:50:43;47.80;;;19.92;;
37785;SDS011;23625;48.784;9.336;2023-01-25T00:53:09;48.88;;;19.35;;
37785;SDS011;23625;48.784;9.336;2023-01-25T00:55:35;51.70;;;19.98;;
37785;SDS011;23625;48.784;9.336;2023-01-25T00:58:01;50.83;;;20.67;;
37785;SDS011;23625;48.784;9.336;2023-01-25T01:00:27;50.33;;;20.55;;
37785;SDS011;23625;48.784;9.336;2023-01-25T01:02:53;54.63;;;20.80;;
37785;SDS011;23625;48.784;9.336;2023-01-25T01:05:19;53.88;;;21.08;;
37785;SDS011;23625;48.784;9.336;2023-01-25T01:07:47;57.17;;;20.65;;
37785;SDS011;23625;48.784;9.336;2023-01-25T01:10:13;59.55;;;21.08;;
37785;SDS011;23625;48.784;9.336;2023-01-25T01:12:39;49.72;;;20.52;;
37785;SDS011;23625;48.784;9.336;2023-01-25T01:18:09;58.33;;;21.45;;
37785;SDS011;23625;48.784;9.336;2023-01-25T01:20:35;56.72;;;22.02;;
37785;SDS011;23625;48.784;9.336;2023-01-25T01:23:01;47.78;;;19.25;;
37785;SDS011;23625;48.784;9.336;2023-01-25T01:25:27;59.35;;;21.83;;
37785;SDS011;23625;48.784;9.336;2023-01-25T01:27:53;54.22;;;20.85;;
37785;SDS011;23625;48.784;9.336;2023-01-25T01:30:19;51.70;;;21.00;;
37785;SDS011;23625;48.784;9.336;2023-01-25T01:32:45;50.30;;;21.25;;
37785;SDS011;23625;48.784;9.336;2023-01-25T01:35:11;55.05;;;20.98;;
37785;SDS011;23625;48.784;9.336;2023-01-25T01:37:39;45.25;;;19.75;;
37785;SDS011;23625;48.784;9.336;2023-01-25T01:40:06;59.20;;;22.20;;
37785;SDS011;23625;48.784;9.336;2023-01-25T01:42:38;57.10;;;20.38;;
37785;SDS011;23625;48.784;9.336;2023-01-25T01:48:03;53.47;;;20.23;;
37785;SDS011;23625;48.784;9.336;2023-01-25T01:50:29;56.97;;;22.00;;
37785;SDS011;23625;48.784;9.336;2023-01-25T01:52:55;51.20;;;21.38;;
37785;SDS011;23625;48.784;9.336;2023-01-25T01:58:21;54.78;;;20.20;;
37785;SDS011;23625;48.784;9.336;2023-01-25T02:00:47;55.33;;;21.38;;
37785;SDS011;23625;48.784;9.336;2023-01-25T02:03:13;52.83;;;20.27;;
37785;SDS011;23625;48.784;9.336;2023-01-25T02:05:53;49.30;;;19.58;;
37785;SDS011;23625;48.784;9.336;2023-01-25T02:08:19;57.92;;;21.10;;
37785;SDS011;23625;48.784;9.336;2023-01-25T02:10:46;48.47;;;18.73;;
37785;SDS011;23625;48.784;9.336;2023-01-25T02:13:13;47.70;;;19.48;;
37785;SDS011;23625;48.784;9.336;2023-01-25T02:15:43;55.22;;;20.10;;
37785;SDS011;23625;48.784;9.336;2023-01-25T02:18:10;57.80;;;21.35;;
37785;SDS011;23625;48.784;9.336;2023-01-25T02:20:38;57.15;;;20.88;;
37785;SDS011;23625;48.784;9.336;2023-01-25T02:25:36;48.13;;;19.00;;
37785;SDS011;23625;48.784;9.336;2023-01-25T02:30:43;54.40;;;20.60;;
37785;SDS011;23625;48.784;9.336;2023-01-25T02:33:09;56.35;;;21.55;;
37785;SDS011;23625;48.784;9.336;2023-01-25T02:35:38;51.38;;;20.02;;
37785;SDS011;23625;48.784;9.336;2023-01-25T02:38:05;53.10;;;20.38;;
37785;SDS011;23625;48.784;9.336;2023-01-25T02:40:31;47.63;;;18.80;;
37785;SDS011;23625;48.784;9.336;2023-01-25T02:42:59;51.90;;;20.60;;
37785;SDS011;23625;48.784;9.336;2023-01-25T02:45:26;55.80;;;20.65;;
37785;SDS011;23625;48.784;9.336;2023-01-25T02:47:54;49.25;;;19.10;;
37785;SDS011;23625;48.784;9.336;2023-01-25T02:50:20;49.13;;;20.05;;
37785;SDS011;23625;48.784;9.336;2023-01-25T02:52:46;47.33;;;19.00;;
37785;SDS011;23625;48.784;9.336;2023-01-25T02:55:12;49.10;;;18.88;;
37785;SDS011;23625;48.784;9.336;2023-01-25T02:57:38;47.65;;;19.02;;
37785;SDS011;23625;48.784;9.336;2023-01-25T03:00:04;52.33;;;18.80;;
37785;SDS011;23625;48.784;9.336;2023-01-25T03:02:30;47.70;;;19.23;;
37785;SDS011;23625;48.784;9.336;2023-01-25T03:04:57;49.08;;;19.35;;
37785;SDS011;23625;48.784;9.336;2023-01-25T03:07:23;52.65;;;20.92;;
37785;SDS011;23625;48.784;9.336;2023-01-25T03:09:49;45.17;;;17.05;;
37785;SDS011;23625;48.784;9.336;2023-01-25T03:12:15;47.30;;;16.80;;
37785;SDS011;23625;48.784;9.336;2023-01-25T03:14:41;41.67;;;14.82;;
37785;SDS011;23625;48.784;9.336;2023-01-25T03:17:08;42.15;;;14.88;;
37785;SDS011;23625;48.784;9.336;2023-01-25T03:19:34;29.60;;;12.07;;
37785;SDS011;23625;48.784;9.336;2023-01-25T03:22:00;31.83;;;13.52;;
37785;SDS011;23625;48.784;9.336;2023-01-25T03:24:26;35.47;;;14.27;;
37785;SDS011;23625;48.784;9.336;2023-01-25T03:26:52;30.60;;;13.35;;
37785;SDS011;23625;48.784;9.336;2023-01-25T03:29:38;38.67;;;13.30;;
37785;SDS011;23625;48.784;9.336;2023-01-25T03:32:04;33.63;;;13.20;;
37785;SDS011;23625;48.784;9.336;2023-01-25T03:34:30;33.38;;;12.82;;
37785;SDS011;23625;48.784;9.336;2023-01-25T03:36:56;27.55;;;12.02;;
37785;SDS011;23625;48.784;9.336;2023-01-25T03:39:22;33.53;;;13.27;;
37785;SDS011;23625;48.784;9.336;2023-01-25T03:41:48;34.25;;;13.00;;
37785;SDS011;23625;48.784;9.336;2023-01-25T03:44:13;33.38;;;11.98;;
37785;SDS011;23625;48.784;9.336;2023-01-25T03:46:40;28.77;;;12.68;;
37785;SDS011;23625;48.784;9.336;2023-01-25T03:49:06;29.45;;;12.30;;
37785;SDS011;23625;48.784;9.336;2023-01-25T03:51:32;33.22;;;13.00;;
37785;SDS011;23625;48.784;9.336;2023-01-25T03:54:01;31.85;;;12.82;;
37785;SDS011;23625;48.784;9.336;2023-01-25T03:56:27;36.10;;;13.25;;
37785;SDS011;23625;48.784;9.336;2023-01-25T03:58:53;29.52;;;12.32;;
37785;SDS011;23625;48.784;9.336;2023-01-25T04:01:19;30.45;;;12.60;;
37785;SDS011;23625;48.784;9.336;2023-01-25T04:03:45;38.20;;;13.65;;
37785;SDS011;23625;48.784;9.336;2023-01-25T04:06:11;34.63;;;13.48;;
37785;SDS011;23625;48.784;9.336;2023-01-25T04:08:37;31.08;;;12.38;;
37785;SDS011;23625;48.784;9.336;2023-01-25T04:11:04;32.80;;;12.70;;
37785;SDS011;23625;48.784;9.336;2023-01-25T04:13:31;30.33;;;11.77;;
37785;SDS011;23625;48.784;9.336;2023-01-25T04:15:59;33.10;;;13.05;;
37785;SDS011;23625;48.784;9.336;2023-01-25T04:18:25;37.22;;;14.20;;
37785;SDS011;23625;48.784;9.336;2023-01-25T04:20:51;31.23;;;13.35;;
37785;SDS011;23625;48.784;9.336;2023-01-25T04:23:18;34.08;;;13.10;;
37785;SDS011;23625;48.784;9.336;2023-01-25T04:25:53;29.05;;;11.98;;
37785;SDS011;23625;48.784;9.336;2023-01-25T04:28:20;37.58;;;12.18;;
37785;SDS011;23625;48.784;9.336;2023-01-25T04:30:46;35.10;;;12.55;;
37785;SDS011;23625;48.784;9.336;2023-01-25T04:33:12;34.90;;;12.98;;
37785;SDS011;23625;48.784;9.336;2023-01-25T04:35:38;37.10;;;13.50;;
37785;SDS011;23625;48.784;9.336;2023-01-25T04:38:04;35.38;;;12.68;;
37785;SDS011;23625;48.784;9.336;2023-01-25T04:40:30;35.35;;;12.68;;
37785;SDS011;23625;48.784;9.336;2023-01-25T04:42:57;35.85;;;14.55;;
37785;SDS011;23625;48.784;9.336;2023-01-25T04:45:23;32.55;;;14.00;;
37785;SDS011;23625;48.784;9.336;2023-01-25T04:47:56;28.45;;;12.30;;
37785;SDS011;23625;48.784;9.336;2023-01-25T04:50:22;29.83;;;13.20;;
37785;SDS011;23625;48.784;9.336;2023-01-25T04:52:48;34.10;;;12.15;;
37785;SDS011;23625;48.784;9.336;2023-01-25T04:55:14;28.35;;;12.75;;
37785;SDS011;23625;48.784;9.336;2023-01-25T04:57:40;32.35;;;12.60;;
37785;SDS011;23625;48.784;9.336;2023-01-25T05:00:06;31.73;;;13.75;;
37785;SDS011;23625;48.784;9.336;2023-01-25T05:02:33;33.00;;;12.85;;
37785;SDS011;23625;48.784;9.336;2023-01-25T05:04:59;35.13;;;14.27;;
37785;SDS011;23625;48.784;9.336;2023-01-25T05:07:25;29.67;;;12.15;;
37785;SDS011;23625;48.784;9.336;2023-01-25T05:09:53;31.65;;;12.95;;
37785;SDS011;23625;48.784;9.336;2023-01-25T05:12:19;32.72;;;13.57;;
37785;SDS011;23625;48.784;9.336;2023-01-25T05:14:45;32.92;;;13.23;;
37785;SDS011;23625;48.784;9.336;2023-01-25T05:17:11;31.77;;;12.40;;
37785;SDS011;23625;48.784;9.336;2023-01-25T05:19:37;33.03;;;13.38;;
37785;SDS011;23625;48.784;9.336;2023-01-25T05:22:03;36.00;;;13.82;;
37785;SDS011;23625;48.784;9.336;2023-01-25T05:24:32;31.08;;;13.40;;
37785;SDS011;23625;48.784;9.336;2023-01-25T05:26:59;30.50;;;12.15;;
37785;SDS011;23625;48.784;9.336;2023-01-25T05:29:28;30.40;;;11.35;;
37785;SDS011;23625;48.784;9.336;2023-01-25T05:31:55;34.45;;;12.80;;
37785;SDS011;23625;48.784;9.336;2023-01-25T05:34:21;30.92;;;11.98;;
37785;SDS011;23625;48.784;9.336;2023-01-25T05:36:47;35.05;;;14.25;;
37785;SDS011;23625;48.784;9.336;2023-01-25T05:39:14;32.25;;;12.50;;
37785;SDS011;23625;48.784;9.336;2023-01-25T05:41:40;29.90;;;12.23;;
37785;SDS011;23625;48.784;9.336;2023-01-25T05:44:06;33.92;;;14.88;;
37785;SDS011;23625;48.784;9.336;2023-01-25T05:46:32;36.25;;;13.35;;
37785;SDS011;23625;48.784;9.336;2023-01-25T05:48:58;36.47;;;13.57;;
37785;SDS011;23625;48.784;9.336;2023-01-25T05:51:23;33.30;;;13.63;;
37785;SDS011;23625;48.784;9.336;2023-01-25T05:53:49;35.03;;;15.05;;
37785;SDS011;23625;48.784;9.336;2023-01-25T05:56:15;35.65;;;14.82;;
37785;SDS011;23625;48.784;9.336;2023-01-25T05:58:41;37.17;;;14.75;;
37785;SDS011;23625;48.784;9.336;2023-01-25T06:01:07;31.73;;;13.32;;
37785;SDS011;23625;48.784;9.336;2023-01-25T06:03:33;31.98;;;13.68;;
37785;SDS011;23625;48.784;9.336;2023-01-25T06:06:00;38.00;;;14.45;;
37785;SDS011;23625;48.784;9.336;2023-01-25T06:08:27;34.95;;;14.07;;
37785;SDS011;23625;48.784;9.336;2023-01-25T06:10:53;37.47;;;15.52;;
37785;SDS011;23625;48.784;9.336;2023-01-25T06:13:19;36.60;;;15.30;;
37785;SDS011;23625;48.784;9.336;2023-01-25T06:15:55;34.10;;;14.80;;
37785;SDS011;23625;48.784;9.336;2023-01-25T06:18:22;36.10;;;14.40;;
37785;SDS011;23625;48.784;9.336;2023-01-25T06:20:48;34.78;;;14.38;;
37785;SDS011;23625;48.784;9.336;2023-01-25T06:23:15;36.97;;;14.23;;
37785;SDS011;23625;48.784;9.336;2023-01-25T06:25:41;33.67;;;14.18;;
37785;SDS011;23625;48.784;9.336;2023-01-25T06:28:07;37.88;;;14.57;;
37785;SDS011;23625;48.784;9.336;2023-01-25T06:30:33;29.77;;;11.70;;
37785;SDS011;23625;48.784;9.336;2023-01-25T06:32:59;27.70;;;11.88;;
37785;SDS011;23625;48.784;9.336;2023-01-25T06:35:26;27.58;;;11.85;;
37785;SDS011;23625;48.784;9.336;2023-01-25T06:37:56;26.25;;;11.45;;
37785;SDS011;23625;48.784;9.336;2023-01-25T06:40:22;28.98;;;11.77;;
37785;SDS011;23625;48.784;9.336;2023-01-25T06:42:48;23.60;;;10.90;;
37785;SDS011;23625;48.784;9.336;2023-01-25T06:45:14;25.05;;;11.27;;
37785;SDS011;23625;48.784;9.336;2023-01-25T06:47:40;27.35;;;10.43;;
37785;SDS011;23625;48.784;9.336;2023-01-25T06:50:06;28.85;;;11.18;;
37785;SDS011;23625;48.784;9.336;2023-01-25T06:52:32;28.80;;;12.05;;
37785;SDS011;23625;48.784;9.336;2023-01-25T06:55:04;26.38;;;10.55;;
37785;SDS011;23625;48.784;9.336;2023-01-25T06:57:32;26.00;;;11.25;;
37785;SDS011;23625;48.784;9.336;2023-01-25T06:59:58;24.08;;;9.57;;
37785;SDS011;23625;48.784;9.336;2023-01-25T07:02:24;27.20;;;10.68;;
37785;SDS011;23625;48.784;9.336;2023-01-25T07:04:50;25.17;;;11.13;;
37785;SDS011;23625;48.784;9.336;2023-01-25T07:07:16;32.45;;;11.63;;
37785;SDS011;23625;48.784;9.336;2023-01-25T07:09:42;22.70;;;10.38;;
37785;SDS011;23625;48.784;9.336;2023-01-25T07:12:08;30.90;;;11.25;;
37785;SDS011;23625;48.784;9.336;2023-01-25T07:14:34;26.17;;;10.70;;
37785;SDS011;23625;48.784;9.336;2023-01-25T07:17:00;30.58;;;11.43;;
37785;SDS011;23625;48.784;9.336;2023-01-25T07:19:26;33.83;;;12.10;;
37785;SDS011;23625;48.784;9.336;2023-01-25T07:21:52;34.50;;;13.65;;
37785;SDS011;23625;48.784;9.336;2023-01-25T07:24:18;34.45;;;12.65;;
37785;SDS011;23625;48.784;9.336;2023-01-25T07:26:45;28.15;;;12.13;;
37785;SDS011;23625;48.784;9.336;2023-01-25T07:29:14;25.65;;;12.55;;
37785;SDS011;23625;48.784;9.336;2023-01-25T07:31:41;24.75;;;11.05;;
37785;SDS011;23625;48.784;9.336;2023-01-25T07:34:10;26.90;;;11.55;;
37785;SDS011;23625;48.784;9.336;2023-01-25T07:36:37;29.50;;;12.05;;
37785;SDS011;23625;48.784;9.336;2023-01-25T07:39:03;26.80;;;11.40;;
37785;SDS011;23625;48.784;9.336;2023-01-25T07:41:29;29.52;;;12.60;;
37785;SDS011;23625;48.784;9.336;2023-01-25T07:43:56;27.15;;;11.02;;
37785;SDS011;23625;48.784;9.336;2023-01-25T07:46:23;25.20;;;10.68;;
37785;SDS011;23625;48.784;9.336;2023-01-25T07:48:49;26.30;;;11.38;;
37785;SDS011;23625;48.784;9.336;2023-01-25T07:51:16;31.02;;;12.48;;
37785;SDS011;23625;48.784;9.336;2023-01-25T07:53:55;28.33;;;11.75;;
37785;SDS011;23625;48.784;9.336;2023-01-25T07:56:22;29.55;;;11.45;;
37785;SDS011;23625;48.784;9.336;2023-01-25T07:58:49;35.05;;;13.75;;
37785;SDS011;23625;48.784;9.336;2023-01-25T08:01:17;32.70;;;13.77;;
37785;SDS011;23625;48.784;9.336;2023-01-25T08:03:43;28.63;;;12.05;;
37785;SDS011;23625;48.784;9.336;2023-01-25T08:06:10;29.05;;;12.63;;
37785;SDS011;23625;48.784;9.336;2023-01-25T08:08:37;34.92;;;15.38;;
37785;SDS011;23625;48.784;9.336;2023-01-25T08:11:08;33.35;;;12.57;;
37785;SDS011;23625;48.784;9.336;2023-01-25T08:13:34;32.15;;;13.50;;
37785;SDS011;23625;48.784;9.336;2023-01-25T08:16:00;28.17;;;13.15;;
37785;SDS011;23625;48.784;9.336;2023-01-25T08:18:26;30.08;;;12.68;;
37785;SDS011;23625;48.784;9.336;2023-01-25T08:20:52;30.80;;;13.15;;
37785;SDS011;23625;48.784;9.336;2023-01-25T08:23:18;37.13;;;14.18;;
37785;SDS011;23625;48.784;9.336;2023-01-25T08:25:44;31.52;;;13.20;;
37785;SDS011;23625;48.784;9.336;2023-01-25T08:28:10;31.77;;;12.00;;
37785;SDS011;23625;48.784;9.336;2023-01-25T08:30:36;31.30;;;12.63;;
37785;SDS011;23625;48.784;9.336;2023-01-25T08:33:02;30.77;;;12.10;;
37785;SDS011;23625;48.784;9.336;2023-01-25T08:35:28;33.25;;;14.88;;
37785;SDS011;23625;48.784;9.336;2023-01-25T08:37:54;36.38;;;15.32;;
37785;SDS011;23625;48.784;9.336;2023-01-25T08:40:20;35.05;;;15.38;;
37785;SDS011;23625;48.784;9.336;2023-01-25T08:42:46;32.83;;;13.10;;
37785;SDS011;23625;48.784;9.336;2023-01-25T08:45:12;34.67;;;12.52;;
37785;SDS011;23625;48.784;9.336;2023-01-25T08:47:38;27.60;;;11.77;;
37785;SDS011;23625;48.784;9.336;2023-01-25T08:50:04;31.70;;;13.23;;
37785;SDS011;23625;48.784;9.336;2023-01-25T08:52:30;29.35;;;12.20;;
37785;SDS011;23625;48.784;9.336;2023-01-25T08:54:57;29.60;;;12.80;;
37785;SDS011;23625;48.784;9.336;2023-01-25T08:57:22;31.33;;;13.02;;
37785;SDS011;23625;48.784;9.336;2023-01-25T08:59:48;32.78;;;12.52;;
37785;SDS011;23625;48.784;9.336;2023-01-25T09:02:14;28.00;;;12.30;;
37785;SDS011;23625;48.784;9.336;2023-01-25T09:04:41;99.63;;;40.13;;
37785;SDS011;23625;48.784;9.336;2023-01-25T09:07:07;41.03;;;16.65;;
37785;SDS011;23625;48.784;9.336;2023-01-25T09:09:33;29.55;;;12.48;;
37785;SDS011;23625;48.784;9.336;2023-01-25T09:11:59;30.33;;;12.98;;
37785;SDS011;23625;48.784;9.336;2023-01-25T09:14:25;32.95;;;14.05;;
37785;SDS011;23625;48.784;9.336;2023-01-25T09:16:51;30.45;;;13.30;;
37785;SDS011;23625;48.784;9.336;2023-01-25T09:19:17;32.83;;;14.52;;
37785;SDS011;23625;48.784;9.336;2023-01-25T09:21:42;33.92;;;14.40;;
37785;SDS011;23625;48.784;9.336;2023-01-25T09:24:08;34.53;;;15.30;;
37785;SDS011;23625;48.784;9.336;2023-01-25T09:26:36;37.58;;;15.88;;
37785;SDS011;23625;48.784;9.336;2023-01-25T09:29:02;41.47;;;17.90;;
37785;SDS011;23625;48.784;9.336;2023-01-25T09:31:28;39.28;;;16.35;;
37785;SDS011;23625;48.784;9.336;2023-01-25T09:33:54;38.17;;;14.82;;
37785;SDS011;23625;48.784;9.336;2023-01-25T09:36:22;36.70;;;15.10;;
37785;SDS011;23625;48.784;9.336;2023-01-25T09:38:48;39.72;;;14.80;;
37785;SDS011;23625;48.784;9.336;2023-01-25T09:55:20;30.85;;;13.32;;
37785;SDS011;23625;48.784;9.336;2023-01-25T09:57:46;31.75;;;13.75;;
37785;SDS011;23625;48.784;9.336;2023-01-25T10:00:22;32.67;;;13.00;;
37785;SDS011;23625;48.784;9.336;2023-01-25T10:05:19;33.30;;;13.02;;
37785;SDS011;23625;48.784;9.336;2023-01-25T10:13:00;37.58;;;15.88;;
37785;SDS011;23625;48.784;9.336;2023-01-25T10:15:30;32.28;;;13.48;;
37785;SDS011;23625;48.784;9.336;2023-01-25T10:17:59;36.03;;;15.18;;
37785;SDS011;23625;48.784;9.336;2023-01-25T10:20:31;35.17;;;14.10;;
37785;SDS011;23625;48.784;9.336;2023-01-25T10:25:44;35.42;;;14.23;;
37785;SDS011;23625;48.784;9.336;2023-01-25T10:33:16;33.97;;;14.50;;
37785;SDS011;23625;48.784;9.336;2023-01-25T10:35:43;35.63;;;15.30;;
37785;SDS011;23625;48.784;9.336;2023-01-25T10:38:15;38.90;;;13.57;;
37785;SDS011;23625;48.784;9.336;2023-01-25T10:41:27;30.98;;;13.63;;
37785;SDS011;23625;48.784;9.336;2023-01-25T10:43:33;41.45;;;18.40;;
37785;SDS011;23625;48.784;9.336;2023-01-25T10:45:59;35.22;;;16.15;;
37785;SDS011;23625;48.784;9.336;2023-01-25T10:48:27;37.90;;;15.40;;
37785;SDS011;23625;48.784;9.336;2023-01-25T10:50:55;39.00;;;17.13;;
37785;SDS011;23625;48.784;9.336;2023-01-25T10:53:23;38.25;;;16.58;;
37785;SDS011;23625;48.784;9.336;2023-01-25T10:58:28;37.58;;;16.65;;
37785;SDS011;23625;48.784;9.336;2023-01-25T11:00:54;37.20;;;15.43;;
37785;SDS011;23625;48.784;9.336;2023-01-25T11:03:20;39.80;;;15.98;;
37785;SDS011;23625;48.784;9.336;2023-01-25T11:05:56;35.88;;;14.57;;
37785;SDS011;23625;48.784;9.336;2023-01-25T11:08:24;37.47;;;16.33;;
37785;SDS011;23625;48.784;9.336;2023-01-25T11:10:51;38.45;;;16.08;;
37785;SDS011;23625;48.784;9.336;2023-01-25T11:15:48;41.25;;;17.23;;
37785;SDS011;23625;48.784;9.336;2023-01-25T11:18:28;41.55;;;16.27;;
37785;SDS011;23625;48.784;9.336;2023-01-25T11:23:28;37.13;;;15.68;;
37785;SDS011;23625;48.784;9.336;2023-01-25T11:26:00;45.45;;;18.33;;
37785;SDS011;23625;48.784;9.336;2023-01-25T11:28:35;42.05;;;17.05;;
37785;SDS011;23625;48.784;9.336;2023-01-25T11:31:01;36.03;;;15.57;;
37785;SDS011;23625;48.784;9.336;2023-01-25T11:33:27;42.05;;;16.23;;
37785;SDS011;23625;48.784;9.336;2023-01-25T11:38:26;31.45;;;13.75;;
37785;SDS011;23625;48.784;9.336;2023-01-25T12:56:40;22.02;;;13.85;;
37785;SDS011;23625;48.784;9.336;2023-01-25T13:01:53;27.98;;;15.43;;
37785;SDS011;23625;48.784;9.336;2023-01-25T13:07:19;29.35;;;15.30;;
37785;SDS011;23625;48.784;9.336;2023-01-25T13:20:52;36.55;;;16.05;;
37785;SDS011;23625;48.784;9.336;2023-01-25T13:28:52;38.50;;;17.77;;
37785;SDS011;23625;48.784;9.336;2023-01-25T13:34:14;40.85;;;16.92;;
37785;SDS011;23625;48.784;9.336;2023-01-25T13:39:52;41.20;;;17.40;;
37785;SDS011;23625;48.784;9.336;2023-01-25T13:45:24;57.53;;;21.20;;
37785;SDS011;23625;48.784;9.336;2023-01-25T13:50:35;40.42;;;17.23;;
37785;SDS011;23625;48.784;9.336;2023-01-25T13:55:42;49.50;;;20.48;;
37785;SDS011;23625;48.784;9.336;2023-01-25T13:58:17;46.42;;;18.08;;
37785;SDS011;23625;48.784;9.336;2023-01-25T14:00:55;50.17;;;19.88;;
37785;SDS011;23625;48.784;9.336;2023-01-25T14:03:24;48.72;;;19.05;;
37785;SDS011;23625;48.784;9.336;2023-01-25T14:05:55;50.17;;;17.95;;
37785;SDS011;23625;48.784;9.336;2023-01-25T14:08:23;48.65;;;18.92;;
37785;SDS011;23625;48.784;9.336;2023-01-25T14:10:50;51.50;;;19.02;;
37785;SDS011;23625;48.784;9.336;2023-01-25T14:13:16;47.38;;;18.08;;
37785;SDS011;23625;48.784;9.336;2023-01-25T14:15:58;55.60;;;19.27;;
37785;SDS011;23625;48.784;9.336;2023-01-25T14:18:32;52.05;;;21.17;;
37785;SDS011;23625;48.784;9.336;2023-01-25T14:24:07;46.47;;;18.92;;
37785;SDS011;23625;48.784;9.336;2023-01-25T14:26:34;50.95;;;19.00;;
37785;SDS011;23625;48.784;9.336;2023-01-25T14:29:02;51.28;;;19.88;;
37785;SDS011;23625;48.784;9.336;2023-01-25T14:31:34;52.08;;;20.73;;
37785;SDS011;23625;48.784;9.336;2023-01-25T14:34:01;55.33;;;19.90;;
37785;SDS011;23625;48.784;9.336;2023-01-25T14:36:29;49.33;;;19.77;;
37785;SDS011;23625;48.784;9.336;2023-01-25T14:38:58;50.00;;;18.42;;
37785;SDS011;23625;48.784;9.336;2023-01-25T14:41:33;50.17;;;18.58;;
37785;SDS011;23625;48.784;9.336;2023-01-25T14:44:10;43.53;;;17.42;;
37785;SDS011;23625;48.784;9.336;2023-01-25T14:46:38;45.72;;;17.02;;
37785;SDS011;23625;48.784;9.336;2023-01-25T14:54:21;46.33;;;17.67;;
37785;SDS011;23625;48.784;9.336;2023-01-25T14:56:53;50.33;;;20.05;;
37785;SDS011;23625;48.784;9.336;2023-01-25T15:01:51;51.33;;;18.20;;
37785;SDS011;23625;48.784;9.336;2023-01-25T15:04:18;47.83;;;17.83;;
37785;SDS011;23625;48.784;9.336;2023-01-25T15:06:51;44.13;;;17.70;;
37785;SDS011;23625;48.784;9.336;2023-01-25T15:09:40;42.03;;;16.70;;
37785;SDS011;23625;48.784;9.336;2023-01-25T15:14:48;50.63;;;19.02;;
37785;SDS011;23625;48.784;9.336;2023-01-25T15:17:34;50.55;;;19.00;;
37785;SDS011;23625;48.784;9.336;2023-01-25T15:23:13;45.00;;;18.10;;
37785;SDS011;23625;48.784;9.336;2023-01-25T15:25:52;45.47;;;18.08;;
37785;SDS011;23625;48.784;9.336;2023-01-25T15:28:26;50.05;;;17.10;;
37785;SDS011;23625;48.784;9.336;2023-01-25T15:30:53;48.67;;;17.00;;
37785;SDS011;23625;48.784;9.336;2023-01-25T15:33:26;50.58;;;19.35;;
37785;SDS011;23625;48.784;9.336;2023-01-25T15:35:53;51.72;;;18.05;;
37785;SDS011;23625;48.784;9.336;2023-01-25T15:38:19;45.28;;;16.88;;
37785;SDS011;23625;48.784;9.336;2023-01-25T15:40:45;49.42;;;20.02;;
37785;SDS011;23625;48.784;9.336;2023-01-25T15:43:12;83.22;;;30.88;;
37785;SDS011;23625;48.784;9.336;2023-01-25T15:45:39;50.65;;;19.48;;
37785;SDS011;23625;48.784;9.336;2023-01-25T15:48:09;47.00;;;19.17;;
37785;SDS011;23625;48.784;9.336;2023-01-25T15:50:56;44.70;;;17.33;;
37785;SDS011;23625;48.784;9.336;2023-01-25T15:53:22;46.78;;;18.40;;
37785;SDS011;23625;48.784;9.336;2023-01-25T15:55:53;53.78;;;19.73;;
37785;SDS011;23625;48.784;9.336;2023-01-25T15:58:24;57.78;;;21.27;;
37785;SDS011;23625;48.784;9.336;2023-01-25T16:00:53;82.05;;;29.45;;
37785;SDS011;23625;48.784;9.336;2023-01-25T16:03:18;82.10;;;30.20;;
37785;SDS011;23625;48.784;9.336;2023-01-25T16:05:45;42.33;;;15.80;;
37785;SDS011;23625;48.784;9.336;2023-01-25T16:08:15;44.60;;;16.15;;
37785;SDS011;23625;48.784;9.336;2023-01-25T16:10:42;40.55;;;14.90;;
37785;SDS011;23625;48.784;9.336;2023-01-25T16:13:08;42.75;;;14.30;;
37785;SDS011;23625;48.784;9.336;2023-01-25T16:15:34;45.80;;;15.98;;
37785;SDS011;23625;48.784;9.336;2023-01-25T16:18:01;40.10;;;16.00;;
37785;SDS011;23625;48.784;9.336;2023-01-25T16:20:26;41.92;;;15.48;;
37785;SDS011;23625;48.784;9.336;2023-01-25T16:22:52;40.35;;;14.40;;
37785;SDS011;23625;48.784;9.336;2023-01-25T16:25:17;39.08;;;14.55;;
37785;SDS011;23625;48.784;9.336;2023-01-25T16:27:43;43.45;;;15.98;;
37785;SDS011;23625;48.784;9.336;2023-01-25T16:30:27;46.92;;;16.35;;
37785;SDS011;23625;48.784;9.336;2023-01-25T16:32:55;42.47;;;15.00;;
37785;SDS011;23625;48.784;9.336;2023-01-25T16:35:21;39.28;;;14.10;;
37785;SDS011;23625;48.784;9.336;2023-01-25T16:37:46;41.20;;;13.98;;
37785;SDS011;23625;48.784;9.336;2023-01-25T16:40:23;39.08;;;14.93;;
37785;SDS011;23625;48.784;9.336;2023-01-25T16:42:54;34.25;;;12.32;;
37785;SDS011;23625;48.784;9.336;2023-01-25T16:45:20;34.83;;;13.52;;
37785;SDS011;23625;48.784;9.336;2023-01-25T16:47:48;34.28;;;13.98;;
37785;SDS011;23625;48.784;9.336;2023-01-25T16:50:15;38.63;;;14.18;;
37785;SDS011;23625;48.784;9.336;2023-01-25T16:52:45;44.17;;;16.35;;
37785;SDS011;23625;48.784;9.336;2023-01-25T16:55:14;35.45;;;12.73;;
37785;SDS011;23625;48.784;9.336;2023-01-25T16:57:41;38.72;;;13.30;;
37785;SDS011;23625;48.784;9.336;2023-01-25T17:00:08;34.75;;;13.75;;
37785;SDS011;23625;48.784;9.336;2023-01-25T17:02:36;34.85;;;11.73;;
37785;SDS011;23625;48.784;9.336;2023-01-25T17:05:02;31.42;;;12.13;;
37785;SDS011;23625;48.784;9.336;2023-01-25T17:07:29;34.47;;;13.80;;
37785;SDS011;23625;48.784;9.336;2023-01-25T17:09:55;37.05;;;14.25;;
37785;SDS011;23625;48.784;9.336;2023-01-25T17:12:21;45.67;;;16.50;;
37785;SDS011;23625;48.784;9.336;2023-01-25T17:14:46;37.95;;;15.52;;
37785;SDS011;23625;48.784;9.336;2023-01-25T17:17:12;38.97;;;14.10;;
37785;SDS011;23625;48.784;9.336;2023-01-25T17:19:38;34.70;;;13.30;;
37785;SDS011;23625;48.784;9.336;2023-01-25T17:22:03;38.38;;;13.77;;
37785;SDS011;23625;48.784;9.336;2023-01-25T17:24:29;34.20;;;11.98;;
37785;SDS011;23625;48.784;9.336;2023-01-25T17:26:54;31.92;;;11.35;;
37785;SDS011;23625;48.784;9.336;2023-01-25T17:29:21;31.85;;;13.05;;
37785;SDS011;23625;48.784;9.336;2023-01-25T17:31:48;30.42;;;12.00;;